Latest Weather Observations for Cressy

IDT60801

Issued at 10:21 am EDT Friday 15 November 2019 (issued every 10 minutes, with the page automatically refreshed every 10 minutes)

About weather observations | Map of weather stations | Latest weather observations for TAS | Other Formats
Station Details ID: 091306 Name: CRESSY RESEARCH STATION Lat: -41.73 Lon: 147.08 Height: 148.0 m
Data from the previous 72 hours. | See also: Recent months at Cressy
Date/Time
EDT
Temp
°C
App
Temp
°C
Dew
Point
°C
Rel
Hum
%
Delta-T
°C
Wind Press
QNH
hPa
Press
MSL
hPa
Rain since
9am
mm
Dir  Spd
km/h
Gust
km/h
Spd
kts
Gust
kts
15/10:00am 15.2 9.0 2.4 42 5.7 NW 24 43 13 23 - - 0.0
15/09:30am 14.5 7.4 1.1 40 5.8 NNW 28 39 15 21 - - 0.0
15/09:00am 14.5 8.1 1.1 40 5.8 WNW 24 35 13 19 - - 0.0
15/08:41am 13.8 6.5 0.1 39 5.8 WNW 28 46 15 25 - - 0.0
15/08:30am 13.7 5.7 0.7 41 5.6 WNW 32 46 17 25 - - 0.0
15/08:24am 13.4 5.0 -1.3 36 6.0 WNW 33 46 18 25 - - 0.0
15/08:00am 12.8 7.5 3.2 52 4.3 NNW 20 28 11 15 - - 0.0
15/07:30am 11.5 6.7 4.5 62 3.2 NNW 19 24 10 13 - - 0.0
15/07:00am 10.8 5.7 4.3 64 2.9 N 20 33 11 18 - - 0.0
15/06:30am 10.0 5.6 4.8 70 2.4 NNW 17 24 9 13 - - 0.0
15/06:00am 8.9 4.2 5.1 77 1.7 N 19 26 10 14 - - 0.0
15/05:30am 8.9 4.1 5.5 79 1.5 N 20 32 11 17 - - 0.0
15/05:00am 9.4 3.9 5.8 78 1.7 N 24 33 13 18 - - 0.0
15/04:31am 10.0 3.3 5.8 75 1.9 NNW 30 56 16 30 - - 0.0
15/04:30am 9.8 3.6 6.2 78 1.7 NNW 28 37 15 20 - - 0.0
15/04:00am 10.4 3.4 6.2 75 2.0 NNW 32 43 17 23 - - 0.0
15/03:30am 10.5 2.9 5.7 72 2.2 NNW 35 48 19 26 - - 0.0
15/03:00am 10.6 3.0 5.8 72 2.2 NNW 35 46 19 25 - - 0.0
15/02:30am 10.6 3.4 5.8 72 2.2 NNW 33 43 18 23 - - 0.0
15/02:00am 11.2 2.8 5.5 68 2.6 NNW 39 48 21 26 - - 0.0
15/01:30am 11.2 3.9 5.3 67 2.7 NNW 33 44 18 24 - - 0.0
15/01:00am 11.4 3.0 5.5 67 2.7 NNW 39 50 21 27 - - 0.0
15/12:30am 11.4 3.1 5.9 69 2.6 NNW 39 56 21 30 - - 0.0
15/12:00am 11.5 3.6 6.0 69 2.6 NNW 37 48 20 26 - - 0.0
 
Date/Time
EDT
Temp
°C
App
Temp
°C
Dew
Point
°C
Rel
Hum
%
Delta-T
°C
Wind Press
QNH
hPa
Press
MSL
hPa
Rain since
9am
mm
Dir  Spd
km/h
Gust
km/h
Spd
kts
Gust
kts
14/11:30pm 11.7 3.3 5.8 67 2.8 NNW 39 50 21 27 - - 0.0
14/11:00pm 11.9 2.5 5.5 65 3.0 NNW 44 57 24 31 - - 0.0
14/10:30pm 12.3 2.4 5.0 61 3.4 NNW 46 65 25 35 - - 0.0
14/10:24pm 12.2 2.7 4.9 61 3.4 NNW 44 65 24 35 - - 0.0
14/10:00pm 12.3 2.4 4.8 60 3.5 NNW 46 57 25 31 - - 0.0
14/09:30pm 12.2 2.9 4.9 61 3.4 NW 43 54 23 29 - - 0.0
14/09:00pm 12.4 3.1 5.1 61 3.4 NW 43 54 23 29 - - 0.0
14/08:33pm 12.9 3.6 4.8 58 3.8 NW 43 61 23 33 - - 0.0
14/08:30pm 12.8 3.9 5.0 59 3.6 NW 41 57 22 31 - - 0.0
14/08:00pm 13.4 4.4 4.8 56 4.0 NW 41 57 22 31 - - 0.0
14/07:34pm 14.2 6.0 4.5 52 4.5 NW 37 57 20 31 - - 0.0
14/07:30pm 14.3 6.1 4.6 52 4.5 NW 37 50 20 27 - - 0.0
14/07:00pm 15.0 5.6 4.4 49 5.0 NW 43 61 23 33 - - 0.0
14/06:30pm 15.9 6.5 5.2 49 5.1 NW 44 65 24 35 - - 0.0
14/06:01pm 16.6 5.9 4.6 45 5.7 NW 50 70 27 38 - - 0.0
14/06:00pm 16.7 6.1 5.0 46 5.6 NW 50 61 27 33 - - 0.0
14/05:30pm 17.5 8.6 5.1 44 6.0 NW 41 61 22 33 - - 0.0
14/05:00pm 18.3 9.5 3.8 38 6.9 NW 39 54 21 29 - - 0.0
14/04:30pm 18.1 8.3 5.3 43 6.2 NNW 46 57 25 31 - - 0.0
14/04:07pm 18.2 8.7 5.1 42 6.4 NW 44 67 24 36 - - 0.0
14/04:00pm 19.3 9.8 3.9 36 7.4 NW 43 57 23 31 - - 0.0
14/03:30pm 19.2 10.3 4.9 39 7.0 NW 41 59 22 32 - - 0.0
14/03:00pm 21.3 14.0 5.6 36 7.9 NW 33 52 18 28 - - 0.0
14/02:58pm 20.8 13.6 6.0 38 7.5 NW 33 52 18 28 - - 0.0
14/02:30pm 20.5 11.9 4.5 35 7.8 NW 39 54 21 29 - - 0.0
14/02:00pm 20.4 12.5 6.0 39 7.2 NW 37 52 20 28 - - 0.0
14/01:30pm 20.8 12.9 6.4 39 7.3 NW 37 52 20 28 - - 0.0
14/01:00pm 20.5 12.3 6.5 40 7.1 NW 39 52 21 28 - - 0.0
14/12:33pm 19.6 12.1 6.4 42 6.6 NW 35 54 19 29 - - 0.0
14/12:30pm 19.4 11.2 6.5 43 6.5 NW 39 54 21 29 - - 0.0
14/12:00pm 18.6 10.5 8.6 52 5.2 NNW 41 54 22 29 - - 0.0
14/11:30am 18.6 10.6 9.1 54 5.0 NNW 41 56 22 30 - - 0.0
14/11:00am 17.5 9.5 8.9 57 4.5 NNW 41 50 22 27 - - 0.0
14/10:30am 16.6 8.8 8.3 58 4.3 NNW 39 52 21 28 - - 0.0
14/10:00am 15.4 6.8 8.2 62 3.7 NNW 43 56 23 30 - - 0.0
14/09:30am 13.8 6.0 8.2 69 2.8 NNW 39 50 21 27 - - 0.0
14/09:00am 13.5 6.2 8.8 73 2.4 NNW 37 46 20 25 - - 0.0
14/08:30am 13.0 6.1 8.9 76 2.1 NNW 35 44 19 24 - - 0.0
14/08:00am 12.0 5.5 8.8 81 1.6 NNW 33 41 18 22 - - 0.0
14/07:30am 11.4 5.1 8.8 84 1.3 NNW 32 41 17 22 - - 0.0
14/07:00am 10.8 4.2 8.6 86 1.1 NNW 33 41 18 22 - - 0.0
14/06:30am 10.4 4.7 8.3 87 1.0 NNW 28 37 15 20 - - 0.0
14/06:00am 10.1 4.4 8.4 89 0.8 NNW 28 39 15 21 - - 0.0
14/05:30am 9.9 4.5 8.0 88 0.9 NNW 26 33 14 18 - - 0.0
14/05:00am 9.7 4.6 7.8 88 0.9 NNW 24 35 13 19 - - 0.0
14/04:30am 9.6 4.1 7.7 88 0.9 NNW 26 33 14 18 - - 0.0
14/04:00am 9.8 3.7 6.7 81 1.5 NNW 28 39 15 21 - - 0.0
14/03:30am 9.4 3.5 5.6 77 1.7 N 26 33 14 18 - - 0.0
14/03:00am 9.2 3.1 4.8 74 2.0 NNW 26 35 14 19 - - 0.0
14/02:30am 9.5 2.9 4.1 69 2.4 NNW 28 37 15 20 - - 0.0
14/02:00am 9.8 3.5 3.5 65 2.8 NNW 26 32 14 17 - - 0.0
14/01:30am 10.0 3.5 2.8 61 3.1 NNW 26 35 14 19 - - 0.0
14/01:00am 9.8 3.7 2.6 61 3.1 NNW 24 32 13 17 - - 0.0
14/12:30am 9.5 3.8 2.6 62 3.0 NNW 22 30 12 16 - - 0.0
14/12:00am 9.8 3.6 1.9 58 3.3 NNW 24 30 13 16 - - 0.0
 
Date/Time
EDT
Temp
°C
App
Temp
°C
Dew
Point
°C
Rel
Hum
%
Delta-T
°C
Wind Press
QNH
hPa
Press
MSL
hPa
Rain since
9am
mm
Dir  Spd
km/h
Gust
km/h
Spd
kts
Gust
kts
13/11:30pm 9.5 4.0 1.7 58 3.3 NNW 20 28 11 15 - - 0.0
13/11:00pm 10.2 4.8 1.3 54 3.7 N 19 26 10 14 - - 0.0
13/10:30pm 10.4 5.0 1.2 53 3.8 NW 19 32 10 17 - - 0.0
13/10:00pm 10.6 5.6 1.2 52 3.9 W 17 28 9 15 - - 0.0
13/09:30pm 10.8 6.6 1.4 52 4.0 SW 13 20 7 11 - - 0.0
13/09:00pm 11.4 7.0 0.5 47 4.5 WSW 13 20 7 11 - - 0.0
13/08:30pm 12.6 4.9 -0.3 41 5.3 SW 30 48 16 26 - - 0.0
13/08:24pm 12.5 5.1 -0.7 40 5.4 SW 28 48 15 26 - - 0.0
13/08:00pm 12.9 6.3 -0.7 39 5.6 W 24 41 13 22 - - 0.0
13/07:30pm 13.8 7.3 0.1 39 5.8 WNW 24 35 13 19 - - 0.0
13/07:00pm 14.6 9.4 0.1 37 6.2 NW 17 33 9 18 - - 0.0
13/06:30pm 14.9 9.4 0.7 38 6.1 WNW 19 39 10 21 - - 0.0
13/06:02pm 15.1 7.9 0.9 38 6.2 W 28 46 15 25 - - 0.0
13/06:00pm 15.0 7.4 0.4 37 6.3 W 30 46 16 25 - - 0.0
13/05:30pm 15.6 8.1 1.4 38 6.3 W 30 50 16 27 - - 0.0
13/05:00pm 15.8 7.5 0.0 34 6.8 WSW 33 63 18 34 - - 0.0
13/04:30pm 15.7 6.3 2.5 41 6.0 WSW 41 63 22 34 - - 0.0
13/04:00pm 15.8 6.1 0.8 36 6.5 WSW 41 61 22 33 - - 0.0
13/03:30pm 16.1 6.0 1.8 38 6.4 WSW 44 72 24 39 - - 0.0
13/03:07pm 16.8 6.9 1.7 36 6.8 WSW 43 61 23 33 - - 0.0
13/03:00pm 16.3 6.3 2.3 39 6.3 WSW 44 61 24 33 - - 0.0
13/02:30pm 17.9 8.7 3.4 38 6.8 WSW 41 63 22 34 - - 0.0
13/02:00pm 17.6 8.3 3.1 38 6.7 WSW 41 65 22 35 - - 0.0
13/01:30pm 17.3 7.9 4.3 42 6.2 WSW 43 67 23 36 - - 0.0
13/01:00pm 18.2 8.7 3.7 38 6.9 WNW 43 63 23 34 - - 0.0
13/12:56pm 18.1 9.7 5.7 44 6.1 NW 39 63 21 34 - - 0.0
13/12:38pm 15.9 7.0 5.2 49 5.1 NW 41 59 22 32 - - 0.0
13/12:30pm 15.6 5.9 5.8 52 4.7 NNW 46 61 25 33 - - 0.0
13/12:00pm 15.0 4.8 5.0 51 4.7 NNW 48 61 26 33 - - 0.0
13/11:30am 15.3 5.5 5.5 52 4.7 NNW 46 59 25 32 - - 0.0
13/11:00am 14.8 6.7 5.3 53 4.5 NW 37 56 20 30 - - 0.0
13/10:58am 14.8 6.4 5.6 54 4.4 NW 39 57 21 31 - - 0.0
13/10:30am 13.9 4.2 3.9 51 4.6 NNW 44 57 24 31 - - 0.0
13/10:00am 13.3 4.5 3.4 51 4.5 NNW 39 50 21 27 - - 0.0
13/09:30am 12.4 4.3 3.1 53 4.1 NW 35 46 19 25 - - 0.0
13/09:01am 12.6 5.1 3.3 53 4.2 NNW 32 50 17 27 - - 0.0
13/09:00am 12.1 4.3 2.8 53 4.1 NNW 33 50 18 27 - - 0.0
13/08:43am 10.5 3.5 2.1 56 3.6 NNW 28 46 15 25 - - 0.0
13/08:30am 9.2 2.8 3.0 65 2.7 N 26 35 14 19 - - 0.0
13/08:00am 8.1 3.3 2.8 69 2.3 N 17 26 9 14 - - 0.0
13/07:30am 7.4 1.9 1.9 68 2.3 N 20 30 11 16 - - 0.0
13/07:00am 6.6 1.0 1.5 70 2.1 N 20 30 11 16 - - 0.0
13/06:30am 6.6 -0.2 0.7 66 2.3 N 26 39 14 21 - - 0.0
13/06:00am 6.3 0.2 0.6 67 2.3 N 22 32 12 17 - - 0.0
13/05:30am 6.1 0.4 0.6 68 2.2 N 20 32 11 17 - - 0.0
13/05:00am 6.6 0.5 0.7 66 2.3 NNW 22 32 12 17 - - 0.0
13/04:30am 5.9 -0.1 1.1 71 1.9 NW 22 41 12 22 - - 0.0
13/04:00am 5.1 0.1 1.4 77 1.5 NW 17 32 9 17 - - 0.0
13/03:30am 5.7 0.2 1.6 75 1.7 NNW 20 30 11 16 - - 0.0
13/03:00am 6.1 -1.8 1.2 71 2.0 NNW 32 44 17 24 - - 0.0
13/02:30am 5.8 -0.9 1.5 74 1.7 NNW 26 33 14 18 - - 0.0
13/02:00am 5.9 -0.8 1.4 73 1.8 NNW 26 32 14 17 - - 0.0
13/01:30am 5.5 -0.9 1.2 74 1.7 NNW 24 32 13 17 - - 0.0
13/01:00am 6.0 -0.3 1.5 73 1.8 NNW 24 30 13 16 - - 0.0
13/12:30am 5.4 0.0 1.3 75 1.6 NNW 19 26 10 14 - - 0.0
13/12:00am 5.5 -0.5 1.2 74 1.7 NNW 22 28 12 15 - - 0.0
 
Date/Time
EDT
Temp
°C
App
Temp
°C
Dew
Point
°C
Rel
Hum
%
Delta-T
°C
Wind Press
QNH
hPa
Press
MSL
hPa
Rain since
9am
mm
Dir  Spd
km/h
Gust
km/h
Spd
kts
Gust
kts
12/11:30pm 5.1 -0.4 1.6 78 1.4 NNW 20 28 11 15 - - 0.0
12/11:00pm 4.7 -0.7 1.4 79 1.3 NNW 19 26 10 14 - - 0.0
12/10:30pm 5.7 -0.7 1.2 73 1.8 NNW 24 32 13 17 - - 0.0
12/10:00pm 6.1 0.5 1.4 72 1.9 NW 20 32 11 17 - - 0.0
12/09:30pm 6.5 1.5 1.4 70 2.1 NW 17 24 9 13 - - 0.0
12/09:00pm 7.3 2.5 0.1 60 2.8 WNW 15 20 8 11 - - 0.0
12/08:30pm 8.4 3.3 0.9 59 3.1 W 17 22 9 12 - - 0.0
12/08:00pm 9.3 3.7 0.2 53 3.7 WSW 19 32 10 17 - - 0.0
12/07:30pm 10.7 5.0 -0.4 46 4.5 W 19 30 10 16 - - 0.0
12/07:00pm 11.7 6.4 -0.8 42 5.1 W 17 26 9 14 - - 0.0
12/06:30pm 12.3 6.2 0.4 44 5.0 W 22 35 12 19 - - 0.0
12/06:00pm 13.6 6.3 -0.1 39 5.7 W 28 48 15 26 - - 0.0
12/05:59pm 13.5 5.7 -0.5 38 5.8 W 30 48 16 26 - - 0.0
12/05:30pm 13.6 6.2 -0.8 37 5.9 WNW 28 41 15 22 - - 0.0
12/05:00pm 13.3 6.2 -1.1 37 5.9 WNW 26 39 14 21 - - 0.0
12/04:45pm 14.6 7.2 -0.7 35 6.4 WNW 28 46 15 25 - - 0.0
12/04:30pm 14.9 7.5 -0.4 35 6.4 WNW 28 44 15 24 - - 0.0
12/04:00pm 14.9 6.7 -1.2 33 6.7 WNW 32 46 17 25 - - 0.0
12/03:30pm 13.1 7.0 2.9 50 4.5 W 24 33 13 18 - - 0.0
12/03:20pm 12.7 3.6 1.7 47 4.8 W 39 57 21 31 - - 0.0
12/03:16pm 12.4 3.1 0.8 45 4.9 W 39 57 21 31 - - 0.0
12/03:13pm 13.8 5.2 0.1 39 5.8 WNW 35 56 19 30 - - 0.0
12/03:00pm 15.3 6.1 -1.7 31 7.0 WNW 37 50 20 27 - - 0.0
12/02:32pm 14.9 5.7 -1.2 33 6.7 WNW 37 56 20 30 - - 0.0
12/02:30pm 15.4 6.3 -0.4 34 6.7 WNW 37 50 20 27 - - 0.0
12/02:17pm 15.0 4.7 0.1 36 6.4 WNW 44 67 24 36 - - 0.0
12/02:00pm 15.5 7.7 2.0 40 6.0 WNW 32 48 17 26 - - 0.0
12/01:33pm 14.1 6.0 1.1 41 5.6 NW 33 52 18 28 - - 0.0
12/01:30pm 14.5 6.5 0.4 38 6.0 NW 32 46 17 25 - - 0.0
12/01:12pm 16.5 8.5 1.4 36 6.7 NW 33 44 18 24 - - 0.0
12/01:06pm 15.4 7.4 1.5 39 6.1 NW 33 44 18 24 - - 0.0
12/01:00pm 15.3 9.2 2.5 42 5.8 WNW 24 43 13 23 - - 0.0
12/12:30pm 14.8 7.6 1.0 39 6.0 WNW 28 44 15 24 - - 0.0
12/12:00pm 15.7 7.8 -1.4 31 7.1 WNW 30 46 16 25 - - 0.0
12/11:55am 15.7 8.4 -0.1 34 6.8 WNW 28 46 15 25 - - 0.0
12/11:30am 15.0 7.7 -0.3 35 6.5 WNW 28 41 15 22 - - 0.0
12/11:00am 13.7 6.5 0.4 40 5.6 NW 28 41 15 22 - - 0.0
12/10:30am 14.1 7.5 -0.4 37 6.1 WNW 24 35 13 19 - - 0.0

Other formats

Comma delimited format used in spreadsheet applications
http://www.bom.gov.au/fwo/IDT60801/IDT60801.95969.axf

JavaScript Object Notation format (JSON) in row-major order
http://www.bom.gov.au/fwo/IDT60801/IDT60801.95969.json

Data quality

Most of these data are generated automatically and are frequently updated. Quality checks on data are not normally performed. It is possible for incorrect values to appear. Refer to information at About Latest Weather Observations and please check the disclaimer before using these data.